sensor_id;sensor_type;location;lat;lon;timestamp;P1;durP1;ratioP1;P2;durP2;ratioP2
14171;SDS011;7165;52.388;4.928;2024-02-04T00:01:29;8.52;;;5.95;;
14171;SDS011;7165;52.388;4.928;2024-02-04T00:03:57;5.68;;;5.15;;
14171;SDS011;7165;52.388;4.928;2024-02-04T00:06:23;7.15;;;6.45;;
14171;SDS011;7165;52.388;4.928;2024-02-04T00:08:51;9.07;;;6.97;;
14171;SDS011;7165;52.388;4.928;2024-02-04T00:11:18;10.68;;;6.88;;
14171;SDS011;7165;52.388;4.928;2024-02-04T00:13:44;9.00;;;7.85;;
14171;SDS011;7165;52.388;4.928;2024-02-04T00:16:11;9.65;;;8.20;;
14171;SDS011;7165;52.388;4.928;2024-02-04T00:18:39;10.32;;;8.07;;
14171;SDS011;7165;52.388;4.928;2024-02-04T00:21:06;12.25;;;9.73;;
14171;SDS011;7165;52.388;4.928;2024-02-04T00:23:33;12.63;;;9.57;;
14171;SDS011;7165;52.388;4.928;2024-02-04T00:26:00;10.80;;;9.55;;
14171;SDS011;7165;52.388;4.928;2024-02-04T00:28:27;10.40;;;9.32;;
14171;SDS011;7165;52.388;4.928;2024-02-04T00:30:54;11.82;;;9.98;;
14171;SDS011;7165;52.388;4.928;2024-02-04T00:33:23;12.38;;;9.23;;
14171;SDS011;7165;52.388;4.928;2024-02-04T00:35:51;16.25;;;9.30;;
14171;SDS011;7165;52.388;4.928;2024-02-04T00:38:18;10.20;;;7.85;;
14171;SDS011;7165;52.388;4.928;2024-02-04T00:40:44;18.73;;;10.55;;
14171;SDS011;7165;52.388;4.928;2024-02-04T00:43:11;10.55;;;7.70;;
14171;SDS011;7165;52.388;4.928;2024-02-04T00:45:38;13.95;;;8.57;;
14171;SDS011;7165;52.388;4.928;2024-02-04T00:48:05;13.98;;;8.38;;
14171;SDS011;7165;52.388;4.928;2024-02-04T00:50:32;9.48;;;7.55;;
14171;SDS011;7165;52.388;4.928;2024-02-04T00:53:01;8.75;;;7.25;;
14171;SDS011;7165;52.388;4.928;2024-02-04T00:55:27;8.02;;;7.30;;
14171;SDS011;7165;52.388;4.928;2024-02-04T00:57:55;14.27;;;7.65;;
14171;SDS011;7165;52.388;4.928;2024-02-04T01:00:23;13.48;;;7.97;;
14171;SDS011;7165;52.388;4.928;2024-02-04T01:02:50;11.20;;;7.10;;
14171;SDS011;7165;52.388;4.928;2024-02-04T01:05:17;7.85;;;5.75;;
14171;SDS011;7165;52.388;4.928;2024-02-04T01:07:44;12.13;;;5.97;;
14171;SDS011;7165;52.388;4.928;2024-02-04T01:10:12;9.65;;;5.72;;
14171;SDS011;7165;52.388;4.928;2024-02-04T01:12:39;12.10;;;6.47;;
14171;SDS011;7165;52.388;4.928;2024-02-04T01:15:06;8.68;;;5.70;;
14171;SDS011;7165;52.388;4.928;2024-02-04T01:17:34;8.13;;;5.28;;
14171;SDS011;7165;52.388;4.928;2024-02-04T01:20:01;10.38;;;6.28;;
14171;SDS011;7165;52.388;4.928;2024-02-04T01:22:28;9.10;;;5.15;;
14171;SDS011;7165;52.388;4.928;2024-02-04T01:24:55;9.77;;;5.68;;
14171;SDS011;7165;52.388;4.928;2024-02-04T01:27:23;13.40;;;6.47;;
14171;SDS011;7165;52.388;4.928;2024-02-04T01:29:50;11.57;;;6.43;;
14171;SDS011;7165;52.388;4.928;2024-02-04T01:32:18;9.60;;;5.90;;
14171;SDS011;7165;52.388;4.928;2024-02-04T01:34:45;9.95;;;6.40;;
14171;SDS011;7165;52.388;4.928;2024-02-04T01:37:12;13.48;;;7.07;;
14171;SDS011;7165;52.388;4.928;2024-02-04T01:39:39;11.50;;;6.88;;
14171;SDS011;7165;52.388;4.928;2024-02-04T01:42:05;12.85;;;6.80;;
14171;SDS011;7165;52.388;4.928;2024-02-04T01:44:34;8.90;;;5.55;;
14171;SDS011;7165;52.388;4.928;2024-02-04T01:47:01;8.82;;;5.80;;
14171;SDS011;7165;52.388;4.928;2024-02-04T01:49:28;7.75;;;6.07;;
14171;SDS011;7165;52.388;4.928;2024-02-04T01:51:55;8.80;;;6.28;;
14171;SDS011;7165;52.388;4.928;2024-02-04T01:54:23;10.77;;;5.50;;
14171;SDS011;7165;52.388;4.928;2024-02-04T01:56:51;8.45;;;6.50;;
14171;SDS011;7165;52.388;4.928;2024-02-04T01:59:19;11.07;;;5.35;;
14171;SDS011;7165;52.388;4.928;2024-02-04T02:01:49;7.30;;;4.85;;
14171;SDS011;7165;52.388;4.928;2024-02-04T02:04:16;7.80;;;5.90;;
14171;SDS011;7165;52.388;4.928;2024-02-04T02:06:43;10.25;;;4.90;;
14171;SDS011;7165;52.388;4.928;2024-02-04T02:09:11;9.30;;;4.50;;
14171;SDS011;7165;52.388;4.928;2024-02-04T02:11:40;12.20;;;5.03;;
14171;SDS011;7165;52.388;4.928;2024-02-04T02:14:11;6.80;;;4.60;;
14171;SDS011;7165;52.388;4.928;2024-02-04T02:16:43;7.85;;;4.50;;
14171;SDS011;7165;52.388;4.928;2024-02-04T02:19:15;9.52;;;5.30;;
14171;SDS011;7165;52.388;4.928;2024-02-04T02:22:00;9.15;;;4.40;;
14171;SDS011;7165;52.388;4.928;2024-02-04T02:24:34;7.97;;;3.70;;
14171;SDS011;7165;52.388;4.928;2024-02-04T02:27:03;7.03;;;3.67;;
14171;SDS011;7165;52.388;4.928;2024-02-04T02:29:31;7.35;;;3.55;;
14171;SDS011;7165;52.388;4.928;2024-02-04T02:31:58;8.77;;;3.63;;
14171;SDS011;7165;52.388;4.928;2024-02-04T02:34:26;7.18;;;4.00;;
14171;SDS011;7165;52.388;4.928;2024-02-04T02:36:55;4.68;;;3.50;;
14171;SDS011;7165;52.388;4.928;2024-02-04T02:39:27;10.35;;;5.03;;
14171;SDS011;7165;52.388;4.928;2024-02-04T02:42:01;8.00;;;3.83;;
14171;SDS011;7165;52.388;4.928;2024-02-04T02:44:30;7.53;;;4.82;;
14171;SDS011;7165;52.388;4.928;2024-02-04T02:46:58;6.13;;;4.25;;
14171;SDS011;7165;52.388;4.928;2024-02-04T02:49:27;6.68;;;4.18;;
14171;SDS011;7165;52.388;4.928;2024-02-04T02:51:54;7.13;;;4.57;;
14171;SDS011;7165;52.388;4.928;2024-02-04T02:54:21;7.07;;;5.13;;
14171;SDS011;7165;52.388;4.928;2024-02-04T02:56:47;7.55;;;5.03;;
14171;SDS011;7165;52.388;4.928;2024-02-04T02:59:16;8.80;;;4.60;;
14171;SDS011;7165;52.388;4.928;2024-02-04T03:01:43;8.82;;;5.03;;
14171;SDS011;7165;52.388;4.928;2024-02-04T03:04:10;6.93;;;5.00;;
14171;SDS011;7165;52.388;4.928;2024-02-04T03:06:37;6.15;;;3.97;;
14171;SDS011;7165;52.388;4.928;2024-02-04T03:09:04;7.65;;;4.60;;
14171;SDS011;7165;52.388;4.928;2024-02-04T03:11:31;4.65;;;3.85;;
14171;SDS011;7165;52.388;4.928;2024-02-04T03:13:58;9.30;;;4.95;;
14171;SDS011;7165;52.388;4.928;2024-02-04T03:55:39;8.65;;;4.22;;
14171;SDS011;7165;52.388;4.928;2024-02-04T03:58:06;9.05;;;3.67;;
14171;SDS011;7165;52.388;4.928;2024-02-04T04:00:33;6.30;;;3.72;;
14171;SDS011;7165;52.388;4.928;2024-02-04T04:03:00;11.18;;;4.55;;
14171;SDS011;7165;52.388;4.928;2024-02-04T04:05:27;11.50;;;4.85;;
14171;SDS011;7165;52.388;4.928;2024-02-04T04:07:56;14.90;;;4.53;;
14171;SDS011;7165;52.388;4.928;2024-02-04T04:10:22;11.82;;;4.53;;
14171;SDS011;7165;52.388;4.928;2024-02-04T04:12:49;9.63;;;3.30;;
14171;SDS011;7165;52.388;4.928;2024-02-04T04:15:16;11.63;;;3.80;;
14171;SDS011;7165;52.388;4.928;2024-02-04T04:17:43;9.10;;;4.47;;
14171;SDS011;7165;52.388;4.928;2024-02-04T04:20:11;11.05;;;3.70;;
14171;SDS011;7165;52.388;4.928;2024-02-04T04:22:38;8.65;;;3.47;;
14171;SDS011;7165;52.388;4.928;2024-02-04T04:25:07;7.63;;;3.92;;
14171;SDS011;7165;52.388;4.928;2024-02-04T04:27:35;10.57;;;4.40;;
14171;SDS011;7165;52.388;4.928;2024-02-04T04:30:02;7.45;;;4.28;;
14171;SDS011;7165;52.388;4.928;2024-02-04T04:32:29;10.57;;;4.72;;
14171;SDS011;7165;52.388;4.928;2024-02-04T04:34:57;7.47;;;4.00;;
14171;SDS011;7165;52.388;4.928;2024-02-04T04:37:24;8.73;;;3.90;;
14171;SDS011;7165;52.388;4.928;2024-02-04T04:39:51;8.48;;;4.00;;
14171;SDS011;7165;52.388;4.928;2024-02-04T04:42:19;5.65;;;3.58;;
14171;SDS011;7165;52.388;4.928;2024-02-04T04:44:46;14.02;;;4.30;;
14171;SDS011;7165;52.388;4.928;2024-02-04T04:47:14;10.23;;;3.92;;
14171;SDS011;7165;52.388;4.928;2024-02-04T04:49:41;10.75;;;3.95;;
14171;SDS011;7165;52.388;4.928;2024-02-04T04:52:08;10.38;;;5.55;;
14171;SDS011;7165;52.388;4.928;2024-02-04T04:54:35;12.52;;;4.45;;
14171;SDS011;7165;52.388;4.928;2024-02-04T04:57:02;11.43;;;4.63;;
14171;SDS011;7165;52.388;4.928;2024-02-04T04:59:30;9.10;;;3.85;;
14171;SDS011;7165;52.388;4.928;2024-02-04T05:01:57;11.57;;;4.00;;
14171;SDS011;7165;52.388;4.928;2024-02-04T05:04:23;11.25;;;4.38;;
14171;SDS011;7165;52.388;4.928;2024-02-04T05:06:50;6.72;;;3.58;;
14171;SDS011;7165;52.388;4.928;2024-02-04T05:09:17;9.27;;;4.45;;
14171;SDS011;7165;52.388;4.928;2024-02-04T05:11:44;9.45;;;4.00;;
14171;SDS011;7165;52.388;4.928;2024-02-04T05:14:11;7.72;;;3.75;;
14171;SDS011;7165;52.388;4.928;2024-02-04T05:16:39;10.73;;;4.75;;
14171;SDS011;7165;52.388;4.928;2024-02-04T05:19:09;11.23;;;4.65;;
14171;SDS011;7165;52.388;4.928;2024-02-04T05:21:37;6.88;;;4.07;;
14171;SDS011;7165;52.388;4.928;2024-02-04T05:24:05;7.22;;;4.15;;
14171;SDS011;7165;52.388;4.928;2024-02-04T05:26:32;11.65;;;4.45;;
14171;SDS011;7165;52.388;4.928;2024-02-04T05:28:59;8.23;;;4.03;;
14171;SDS011;7165;52.388;4.928;2024-02-04T05:31:26;7.75;;;4.65;;
14171;SDS011;7165;52.388;4.928;2024-02-04T05:33:55;8.98;;;3.75;;
14171;SDS011;7165;52.388;4.928;2024-02-04T05:36:22;7.15;;;3.97;;
14171;SDS011;7165;52.388;4.928;2024-02-04T05:38:49;9.55;;;4.20;;
14171;SDS011;7165;52.388;4.928;2024-02-04T05:41:16;8.20;;;4.13;;
14171;SDS011;7165;52.388;4.928;2024-02-04T05:43:43;7.63;;;3.85;;
14171;SDS011;7165;52.388;4.928;2024-02-04T05:46:10;6.85;;;3.45;;
14171;SDS011;7165;52.388;4.928;2024-02-04T05:48:39;11.45;;;4.45;;
14171;SDS011;7165;52.388;4.928;2024-02-04T05:51:10;11.48;;;4.35;;
14171;SDS011;7165;52.388;4.928;2024-02-04T05:53:37;8.30;;;4.07;;
14171;SDS011;7165;52.388;4.928;2024-02-04T05:56:04;5.47;;;3.80;;
14171;SDS011;7165;52.388;4.928;2024-02-04T05:58:31;8.45;;;3.75;;
14171;SDS011;7165;52.388;4.928;2024-02-04T06:00:58;6.35;;;3.63;;
14171;SDS011;7165;52.388;4.928;2024-02-04T06:03:25;9.10;;;3.97;;
14171;SDS011;7165;52.388;4.928;2024-02-04T06:05:52;12.48;;;4.03;;
14171;SDS011;7165;52.388;4.928;2024-02-04T06:08:20;12.25;;;3.80;;
14171;SDS011;7165;52.388;4.928;2024-02-04T06:10:47;7.93;;;3.80;;
14171;SDS011;7165;52.388;4.928;2024-02-04T06:13:14;8.95;;;4.28;;
14171;SDS011;7165;52.388;4.928;2024-02-04T06:15:41;8.45;;;3.47;;
14171;SDS011;7165;52.388;4.928;2024-02-04T06:18:08;8.13;;;3.70;;
14171;SDS011;7165;52.388;4.928;2024-02-04T06:20:35;6.45;;;4.07;;
14171;SDS011;7165;52.388;4.928;2024-02-04T06:23:02;7.22;;;3.47;;
14171;SDS011;7165;52.388;4.928;2024-02-04T06:25:30;5.85;;;3.75;;
14171;SDS011;7165;52.388;4.928;2024-02-04T06:27:57;7.93;;;4.60;;
14171;SDS011;7165;52.388;4.928;2024-02-04T06:30:24;7.50;;;4.55;;
14171;SDS011;7165;52.388;4.928;2024-02-04T06:32:50;10.50;;;4.78;;
14171;SDS011;7165;52.388;4.928;2024-02-04T06:35:17;4.55;;;3.90;;
14171;SDS011;7165;52.388;4.928;2024-02-04T06:37:44;6.85;;;4.45;;
14171;SDS011;7165;52.388;4.928;2024-02-04T06:40:11;9.82;;;4.40;;
14171;SDS011;7165;52.388;4.928;2024-02-04T06:42:39;8.05;;;4.63;;
14171;SDS011;7165;52.388;4.928;2024-02-04T06:45:07;7.40;;;4.60;;
14171;SDS011;7165;52.388;4.928;2024-02-04T06:47:34;7.97;;;4.00;;
14171;SDS011;7165;52.388;4.928;2024-02-04T06:50:01;6.82;;;3.72;;
14171;SDS011;7165;52.388;4.928;2024-02-04T06:52:30;6.35;;;4.35;;
14171;SDS011;7165;52.388;4.928;2024-02-04T06:54:57;8.65;;;4.85;;
14171;SDS011;7165;52.388;4.928;2024-02-04T06:57:24;10.02;;;5.00;;
14171;SDS011;7165;52.388;4.928;2024-02-04T06:59:52;7.18;;;4.88;;
14171;SDS011;7165;52.388;4.928;2024-02-04T07:02:19;7.72;;;5.03;;
14171;SDS011;7165;52.388;4.928;2024-02-04T07:04:46;7.13;;;5.57;;
14171;SDS011;7165;52.388;4.928;2024-02-04T07:07:12;10.02;;;5.63;;
14171;SDS011;7165;52.388;4.928;2024-02-04T07:09:39;7.47;;;5.63;;
14171;SDS011;7165;52.388;4.928;2024-02-04T07:12:06;8.93;;;5.68;;
14171;SDS011;7165;52.388;4.928;2024-02-04T07:14:33;9.52;;;7.72;;
14171;SDS011;7165;52.388;4.928;2024-02-04T07:17:01;14.20;;;9.25;;
14171;SDS011;7165;52.388;4.928;2024-02-04T07:19:29;15.85;;;9.95;;
14171;SDS011;7165;52.388;4.928;2024-02-04T07:21:55;14.10;;;10.15;;
14171;SDS011;7165;52.388;4.928;2024-02-04T07:24:22;15.43;;;10.15;;
14171;SDS011;7165;52.388;4.928;2024-02-04T07:26:49;10.80;;;8.70;;
14171;SDS011;7165;52.388;4.928;2024-02-04T07:29:16;16.15;;;9.00;;
14171;SDS011;7165;52.388;4.928;2024-02-04T07:31:43;15.18;;;9.38;;
14171;SDS011;7165;52.388;4.928;2024-02-04T07:34:11;15.75;;;8.35;;
14171;SDS011;7165;52.388;4.928;2024-02-04T07:36:38;19.73;;;8.52;;
14171;SDS011;7165;52.388;4.928;2024-02-04T07:39:05;10.18;;;7.00;;
14171;SDS011;7165;52.388;4.928;2024-02-04T07:41:32;7.53;;;6.55;;
14171;SDS011;7165;52.388;4.928;2024-02-04T07:43:59;11.88;;;6.93;;
14171;SDS011;7165;52.388;4.928;2024-02-04T07:46:26;9.73;;;6.50;;
14171;SDS011;7165;52.388;4.928;2024-02-04T07:48:53;13.05;;;6.57;;
14171;SDS011;7165;52.388;4.928;2024-02-04T07:51:21;13.38;;;7.63;;
14171;SDS011;7165;52.388;4.928;2024-02-04T07:53:48;12.45;;;6.28;;
14171;SDS011;7165;52.388;4.928;2024-02-04T07:56:14;12.63;;;6.35;;
14171;SDS011;7165;52.388;4.928;2024-02-04T07:58:41;13.57;;;5.97;;
14171;SDS011;7165;52.388;4.928;2024-02-04T08:01:08;9.00;;;6.03;;
14171;SDS011;7165;52.388;4.928;2024-02-04T08:03:35;7.13;;;4.90;;
14171;SDS011;7165;52.388;4.928;2024-02-04T08:06:02;9.23;;;5.10;;
14171;SDS011;7165;52.388;4.928;2024-02-04T08:08:31;15.00;;;5.95;;
14171;SDS011;7165;52.388;4.928;2024-02-04T08:10:58;9.10;;;5.03;;
14171;SDS011;7165;52.388;4.928;2024-02-04T08:13:25;7.78;;;4.70;;
14171;SDS011;7165;52.388;4.928;2024-02-04T08:15:51;9.73;;;5.00;;
14171;SDS011;7165;52.388;4.928;2024-02-04T08:18:18;11.00;;;4.60;;
14171;SDS011;7165;52.388;4.928;2024-02-04T08:20:45;12.95;;;4.88;;
14171;SDS011;7165;52.388;4.928;2024-02-04T08:23:12;9.50;;;4.60;;
14171;SDS011;7165;52.388;4.928;2024-02-04T08:25:40;10.73;;;4.68;;
14171;SDS011;7165;52.388;4.928;2024-02-04T08:28:07;9.02;;;4.18;;
14171;SDS011;7165;52.388;4.928;2024-02-04T08:30:34;9.75;;;4.57;;
14171;SDS011;7165;52.388;4.928;2024-02-04T08:33:01;6.47;;;4.78;;
14171;SDS011;7165;52.388;4.928;2024-02-04T08:35:28;8.55;;;3.75;;
14171;SDS011;7165;52.388;4.928;2024-02-04T08:37:55;8.30;;;5.15;;
14171;SDS011;7165;52.388;4.928;2024-02-04T08:40:22;7.80;;;5.40;;
14171;SDS011;7165;52.388;4.928;2024-02-04T08:42:50;6.88;;;5.95;;
14171;SDS011;7165;52.388;4.928;2024-02-04T08:45:17;9.45;;;6.93;;
14171;SDS011;7165;52.388;4.928;2024-02-04T08:47:44;9.60;;;7.38;;
14171;SDS011;7165;52.388;4.928;2024-02-04T08:50:11;11.75;;;7.05;;
14171;SDS011;7165;52.388;4.928;2024-02-04T08:52:38;14.27;;;6.97;;
14171;SDS011;7165;52.388;4.928;2024-02-04T08:55:05;15.60;;;8.20;;
14171;SDS011;7165;52.388;4.928;2024-02-04T08:57:32;9.13;;;6.65;;
14171;SDS011;7165;52.388;4.928;2024-02-04T09:00:00;9.55;;;6.28;;
14171;SDS011;7165;52.388;4.928;2024-02-04T09:02:27;13.25;;;6.72;;
14171;SDS011;7165;52.388;4.928;2024-02-04T09:04:54;10.20;;;6.28;;
14171;SDS011;7165;52.388;4.928;2024-02-04T09:07:21;18.58;;;6.95;;
14171;SDS011;7165;52.388;4.928;2024-02-04T09:09:48;8.40;;;5.03;;
14171;SDS011;7165;52.388;4.928;2024-02-04T09:12:15;14.35;;;5.43;;
14171;SDS011;7165;52.388;4.928;2024-02-04T09:14:41;11.07;;;5.40;;
14171;SDS011;7165;52.388;4.928;2024-02-04T09:17:10;6.97;;;5.00;;
14171;SDS011;7165;52.388;4.928;2024-02-04T09:19:38;10.88;;;5.55;;
14171;SDS011;7165;52.388;4.928;2024-02-04T09:22:05;7.72;;;4.18;;
14171;SDS011;7165;52.388;4.928;2024-02-04T09:24:32;11.85;;;4.63;;
14171;SDS011;7165;52.388;4.928;2024-02-04T09:26:59;8.40;;;5.22;;
14171;SDS011;7165;52.388;4.928;2024-02-04T09:29:26;9.90;;;5.07;;
14171;SDS011;7165;52.388;4.928;2024-02-04T09:31:53;7.32;;;4.43;;
14171;SDS011;7165;52.388;4.928;2024-02-04T09:34:21;9.05;;;4.65;;
14171;SDS011;7165;52.388;4.928;2024-02-04T09:36:48;10.00;;;5.07;;
14171;SDS011;7165;52.388;4.928;2024-02-04T09:39:18;8.35;;;4.60;;
14171;SDS011;7165;52.388;4.928;2024-02-04T09:41:51;9.10;;;5.25;;
14171;SDS011;7165;52.388;4.928;2024-02-04T09:44:18;10.40;;;4.03;;
14171;SDS011;7165;52.388;4.928;2024-02-04T09:46:45;16.48;;;4.65;;
14171;SDS011;7165;52.388;4.928;2024-02-04T09:49:12;10.10;;;5.13;;
14171;SDS011;7165;52.388;4.928;2024-02-04T09:51:40;8.80;;;5.00;;
14171;SDS011;7165;52.388;4.928;2024-02-04T09:54:08;11.20;;;4.63;;
14171;SDS011;7165;52.388;4.928;2024-02-04T09:56:37;8.32;;;4.55;;
14171;SDS011;7165;52.388;4.928;2024-02-04T09:59:04;5.90;;;3.40;;
14171;SDS011;7165;52.388;4.928;2024-02-04T10:01:31;6.80;;;3.75;;
14171;SDS011;7165;52.388;4.928;2024-02-04T10:03:58;8.48;;;4.97;;
14171;SDS011;7165;52.388;4.928;2024-02-04T10:06:26;6.40;;;3.97;;
14171;SDS011;7165;52.388;4.928;2024-02-04T10:08:54;10.20;;;3.97;;
14171;SDS011;7165;52.388;4.928;2024-02-04T10:11:21;7.22;;;3.58;;
14171;SDS011;7165;52.388;4.928;2024-02-04T10:13:49;10.13;;;4.07;;
14171;SDS011;7165;52.388;4.928;2024-02-04T10:16:16;10.25;;;4.13;;
14171;SDS011;7165;52.388;4.928;2024-02-04T10:18:43;5.20;;;3.50;;
14171;SDS011;7165;52.388;4.928;2024-02-04T10:21:14;7.18;;;3.05;;
14171;SDS011;7165;52.388;4.928;2024-02-04T10:23:43;5.82;;;4.00;;
14171;SDS011;7165;52.388;4.928;2024-02-04T10:26:11;8.32;;;3.60;;
14171;SDS011;7165;52.388;4.928;2024-02-04T10:28:38;5.35;;;3.25;;
14171;SDS011;7165;52.388;4.928;2024-02-04T10:31:06;7.78;;;3.22;;
14171;SDS011;7165;52.388;4.928;2024-02-04T10:33:34;5.95;;;3.47;;
14171;SDS011;7165;52.388;4.928;2024-02-04T11:30:59;3.60;;;2.17;;
14171;SDS011;7165;52.388;4.928;2024-02-04T11:33:27;1.90;;;1.80;;
14171;SDS011;7165;52.388;4.928;2024-02-04T11:36:02;5.18;;;2.75;;
14171;SDS011;7165;52.388;4.928;2024-02-04T11:38:31;5.25;;;3.05;;
14171;SDS011;7165;52.388;4.928;2024-02-04T11:41:02;2.90;;;2.53;;
14171;SDS011;7165;52.388;4.928;2024-02-04T11:43:32;5.55;;;3.40;;
14171;SDS011;7165;52.388;4.928;2024-02-04T11:45:59;6.50;;;3.80;;
14171;SDS011;7165;52.388;4.928;2024-02-04T11:48:30;7.82;;;3.60;;
14171;SDS011;7165;52.388;4.928;2024-02-04T11:50:59;5.90;;;3.70;;
14171;SDS011;7165;52.388;4.928;2024-02-04T14:41:00;12.35;;;4.75;;
14171;SDS011;7165;52.388;4.928;2024-02-04T14:43:28;13.73;;;4.35;;
14171;SDS011;7165;52.388;4.928;2024-02-04T14:45:55;11.90;;;5.22;;
14171;SDS011;7165;52.388;4.928;2024-02-04T14:48:22;13.98;;;4.28;;
